Time;durP1;ratioP1;P1;durP2;ratioP2;P2;SDS_P1;SDS_P2;PMS_P1;PMS_P2;Temp;Humidity;BMP_temperature;BMP_pressure;BME280_temperature;BME280_humidity;BME280_pressure;Samples;Min_cycle;Max_cycle;Signal;HPM_P1;HPM_P2
2022/06/02 00:01:17;;;;;;;2.47;1.90;;;;;;;11.10;100.00;100827.47;4943507;29;20235;-71
2022/06/02 00:03:52;;;;;;;3.60;2.17;;;;;;;11.11;100.00;100834.38;4943005;29;20222;-71
2022/06/02 00:06:30;;;;;;;5.67;2.20;;;;;;;11.05;100.00;100831.09;4942881;28;20387;-71
2022/06/02 00:09:04;;;;;;;3.43;2.10;;;;;;;11.01;100.00;100808.56;4946088;29;20211;-71
2022/06/02 00:11:48;;;;;;;7.07;1.70;;;;;;;10.91;100.00;100797.50;4942777;29;20221;-72
2022/06/02 00:14:20;;;;;;;1.40;1.13;;;;;;;10.84;100.00;100801.16;4944542;29;20236;-72
2022/06/02 00:16:52;;;;;;;1.20;1.10;;;;;;;10.78;100.00;100800.41;4942333;28;20217;-72
2022/06/02 00:19:29;;;;;;;1.23;1.13;;;;;;;10.75;100.00;100829.16;4944915;28;20208;-72
2022/06/02 00:22:01;;;;;;;1.50;1.40;;;;;;;10.73;100.00;100832.69;4944568;28;20226;-72
2022/06/02 00:24:39;;;;;;;1.70;1.60;;;;;;;10.67;100.00;100835.47;4946654;28;20199;-72
2022/06/02 00:27:14;;;;;;;1.50;1.40;;;;;;;10.60;100.00;100840.78;4943999;28;20204;-72
2022/06/02 00:29:50;;;;;;;1.70;1.40;;;;;;;10.57;100.00;100842.63;4935445;29;20206;-71
2022/06/02 00:32:22;;;;;;;1.60;1.50;;;;;;;10.53;100.00;100844.44;4927462;28;20202;-71
2022/06/02 00:34:55;;;;;;;2.53;1.50;;;;;;;10.52;100.00;100844.50;4945914;28;20232;-72
2022/06/02 00:37:32;;;;;;;1.90;1.80;;;;;;;10.45;100.00;100848.97;4945421;28;20576;-72
2022/06/02 00:40:01;;;;;;;1.93;1.77;;;;;;;10.46;100.00;100862.88;4945411;28;20226;-72
2022/06/02 00:42:39;;;;;;;2.30;2.10;;;;;;;10.42;100.00;100846.44;4943626;28;20202;-71
2022/06/02 00:45:10;;;;;;;1.90;1.80;;;;;;;10.44;100.00;100838.59;4943104;28;20200;-72
2022/06/02 00:47:48;;;;;;;2.23;2.03;;;;;;;10.46;100.00;100835.03;4941921;28;20194;-71
2022/06/02 00:50:35;;;;;;;2.30;2.10;;;;;;;10.46;100.00;100844.63;4943653;28;20233;-72
2022/06/02 00:53:14;;;;;;;2.50;2.30;;;;;;;10.49;100.00;100853.22;4943841;28;20662;-72
2022/06/02 00:58:58;;;;;;;2.17;1.97;;;;;;;10.39;100.00;100865.59;4941811;28;20210;-72
2022/06/02 01:01:28;;;;;;;2.50;2.30;;;;;;;10.35;100.00;100858.75;4943349;29;20370;-72
2022/06/02 01:03:56;;;;;;;2.77;1.97;;;;;;;10.35;100.00;100850.06;4942663;29;20206;-72
2022/06/02 01:06:35;;;;;;;2.20;2.00;;;;;;;10.30;100.00;100857.94;4944460;28;20679;-71
2022/06/02 01:09:34;;;;;;;2.40;2.20;;;;;;;10.29;100.00;100864.06;4944657;29;20195;-72
2022/06/02 01:12:15;;;;;;;1.93;1.80;;;;;;;10.24;100.00;100873.72;4944548;28;20214;-72
2022/06/02 01:14:59;;;;;;;2.77;2.53;;;;;;;10.19;100.00;100880.78;4943281;28;20232;-72
2022/06/02 01:17:38;;;;;;;2.17;1.87;;;;;;;10.07;100.00;100892.28;4945091;28;20213;-71
2022/06/02 01:20:20;;;;;;;2.27;2.07;;;;;;;10.00;100.00;100893.31;4945497;28;20579;-71
2022/06/02 01:23:26;;;;;;;2.40;2.20;;;;;;;9.85;100.00;100887.50;4943316;28;20213;-71
2022/06/02 01:26:13;;;;;;;2.40;2.10;;;;;;;9.77;100.00;100891.13;4930273;28;20217;-72
2022/06/02 01:28:56;;;;;;;2.00;1.90;;;;;;;9.69;100.00;100888.66;4942272;28;20213;-71
2022/06/02 01:31:37;;;;;;;2.17;1.97;;;;;;;9.63;100.00;100891.38;4944138;29;20226;-71
2022/06/02 01:34:15;;;;;;;2.40;2.20;;;;;;;9.54;100.00;100887.19;4943638;29;20214;-72
2022/06/02 01:36:51;;;;;;;2.10;1.90;;;;;;;9.48;100.00;100895.13;4939177;28;20273;-71
2022/06/02 01:39:30;;;;;;;2.50;2.30;;;;;;;9.39;100.00;100892.66;4943458;29;20194;-71
2022/06/02 01:42:08;;;;;;;3.60;2.10;;;;;;;9.43;100.00;100887.41;4942345;29;20222;-72
2022/06/02 01:44:43;;;;;;;2.33;2.13;;;;;;;9.39;100.00;100893.56;4944157;28;20200;-71
2022/06/02 01:47:20;;;;;;;2.53;1.97;;;;;;;9.34;100.00;100900.56;4940570;28;20207;-72
2022/06/02 01:50:02;;;;;;;2.50;2.30;;;;;;;9.34;100.00;100907.50;4939048;28;20201;-72
2022/06/02 01:52:43;;;;;;;2.37;2.17;;;;;;;9.28;100.00;100904.09;4940436;28;20210;-71
2022/06/02 01:55:24;;;;;;;2.83;2.30;;;;;;;9.26;100.00;100902.44;4942281;28;20378;-72
2022/06/02 01:58:05;;;;;;;4.13;2.23;;;;;;;9.15;100.00;100913.00;4943172;29;20573;-72
2022/06/02 02:00:34;;;;;;;2.60;2.40;;;;;;;9.06;100.00;100910.56;4944308;28;20264;-71
2022/06/02 02:03:11;;;;;;;2.77;2.50;;;;;;;9.03;100.00;100915.81;4943911;28;20583;-72
2022/06/02 02:05:54;;;;;;;2.97;2.70;;;;;;;8.94;100.00;100913.34;4940919;28;20193;-71
2022/06/02 02:08:49;;;;;;;2.60;2.40;;;;;;;9.02;100.00;100908.88;4939849;28;20218;-72
2022/06/02 02:11:33;;;;;;;3.10;2.80;;;;;;;8.88;100.00;100914.28;4943214;28;21010;-72
2022/06/02 02:14:19;;;;;;;3.10;2.80;;;;;;;8.79;100.00;100920.47;4945541;28;20220;-72
2022/06/02 02:16:52;;;;;;;3.20;2.90;;;;;;;8.81;100.00;100917.84;4953107;28;20211;-72
2022/06/02 02:19:38;;;;;;;3.03;2.73;;;;;;;8.74;100.00;100926.59;4946307;28;20208;-72
2022/06/02 02:22:13;;;;;;;3.43;3.07;;;;;;;8.70;100.00;100918.84;4947714;28;20217;-72
2022/06/02 02:25:00;;;;;;;3.40;3.00;;;;;;;8.65;100.00;100920.69;4943008;28;20192;-72
2022/06/02 02:28:02;;;;;;;3.33;3.00;;;;;;;8.68;100.00;100919.75;4947256;29;20293;-72
2022/06/02 02:30:28;;;;;;;3.40;3.10;;;;;;;8.66;100.00;100921.53;4943078;29;20234;-72
2022/06/02 02:33:00;;;;;;;4.23;3.20;;;;;;;8.67;100.00;100918.91;4948833;28;20595;-71
2022/06/02 02:35:35;;;;;;;5.40;3.33;;;;;;;8.50;100.00;100919.13;4945811;28;20223;-72
2022/06/02 02:41:57;;;;;;;3.50;3.20;;;;;;;8.49;100.00;100926.94;4950834;28;20265;-71
2022/06/02 02:44:29;;;;;;;3.50;3.20;;;;;;;8.47;100.00;100926.09;4946109;28;20289;-72
2022/06/02 02:47:00;;;;;;;3.77;3.33;;;;;;;8.52;100.00;100927.75;4942812;29;20203;-72
2022/06/02 02:49:34;;;;;;;3.80;3.50;;;;;;;8.45;100.00;100936.50;4947355;28;20687;-71
2022/06/02 02:52:11;;;;;;;4.37;3.50;;;;;;;8.43;100.00;100938.28;4944833;29;20225;-72
2022/06/02 02:54:47;;;;;;;4.20;3.80;;;;;;;8.50;100.00;100944.25;4928639;29;20221;-72
2022/06/02 02:57:23;;;;;;;3.57;3.23;;;;;;;8.44;100.00;100947.78;4945624;29;20225;-72
2022/06/02 02:59:56;;;;;;;4.30;3.60;;;;;;;8.46;100.00;100945.16;4950510;28;20211;-71
2022/06/02 03:02:29;;;;;;;4.80;4.17;;;;;;;8.55;100.00;100952.84;4945418;28;20681;-71
2022/06/02 03:05:03;;;;;;;3.70;3.40;;;;;;;8.58;100.00;100954.53;4944829;28;20213;-71
2022/06/02 03:07:31;;;;;;;6.37;4.00;;;;;;;8.50;100.00;100955.50;4945443;28;20762;-72
2022/06/02 03:10:04;;;;;;;5.13;4.50;;;;;;;8.46;100.00;100953.84;4945223;29;20254;-72
2022/06/02 03:12:48;;;;;;;4.90;4.33;;;;;;;8.41;100.00;100962.50;4942311;29;20210;-71
2022/06/02 03:15:21;;;;;;;4.47;3.70;;;;;;;8.46;100.00;100971.13;4943788;28;20241;-72
2022/06/02 03:18:12;;;;;;;4.63;4.20;;;;;;;8.30;100.00;100973.91;4945144;28;20205;-72
2022/06/02 03:20:51;;;;;;;4.83;4.23;;;;;;;8.33;100.00;100971.25;4946855;28;20225;-72
2022/06/02 03:23:36;;;;;;;4.43;4.03;;;;;;;8.44;100.00;100981.56;4945495;28;20202;-71
2022/06/02 03:26:08;;;;;;;4.67;4.27;;;;;;;8.40;100.00;100985.03;4946721;28;20199;-71
2022/06/02 03:28:41;;;;;;;5.87;4.27;;;;;;;8.43;100.00;100985.03;4946188;28;20209;-72
2022/06/02 03:31:15;;;;;;;5.43;4.70;;;;;;;8.55;100.00;100990.97;4944600;28;20229;-72
2022/06/02 03:33:57;;;;;;;5.47;4.90;;;;;;;8.48;100.00;100975.47;4944279;29;20210;-71
2022/06/02 03:36:37;;;;;;;6.67;4.70;;;;;;;8.45;100.00;100985.03;4946206;29;20203;-71
2022/06/02 03:39:08;;;;;;;5.17;4.67;;;;;;;8.58;100.00;100993.53;4944268;29;20228;-72
2022/06/02 03:41:59;;;;;;;5.27;4.60;;;;;;;8.62;100.00;100995.19;4939290;28;20596;-72
2022/06/02 03:44:40;;;;;;;5.80;5.10;;;;;;;8.72;100.00;100994.22;4944601;28;20207;-72
2022/06/02 03:47:28;;;;;;;5.27;4.53;;;;;;;8.84;100.00;100996.66;4947167;28;20199;-72
2022/06/02 03:50:11;;;;;;;5.40;4.77;;;;;;;8.77;100.00;101008.03;4942625;28;20199;-72
2022/06/02 03:52:53;;;;;;;6.87;5.07;;;;;;;8.82;100.00;101006.22;4943728;28;20230;-72
2022/06/02 03:55:33;;;;;;;6.97;4.40;;;;;;;8.87;100.00;101017.44;4941861;28;20707;-72
2022/06/02 03:58:14;;;;;;;7.00;5.47;;;;;;;8.86;100.00;101014.84;4944003;28;20698;-72
2022/06/02 04:00:48;;;;;;;7.43;5.90;;;;;;;8.88;100.00;101015.69;4941016;28;20250;-72
2022/06/02 04:03:26;;;;;;;5.53;4.87;;;;;;;8.97;100.00;101020.78;4942280;29;20487;-72
2022/06/02 04:06:06;;;;;;;5.27;4.77;;;;;;;9.09;100.00;101022.34;4941823;29;20666;-72
2022/06/02 04:08:59;;;;;;;5.50;5.00;;;;;;;9.08;100.00;101025.84;4944798;29;20203;-72
2022/06/02 04:14:37;;;;;;;6.00;5.40;;;;;;;9.31;100.00;101028.13;4945125;28;20583;-72
2022/06/02 04:17:11;;;;;;;5.60;5.00;;;;;;;9.39;100.00;101030.59;4943162;28;20205;-72
2022/06/02 04:23:05;;;;;;;7.63;5.17;;;;;;;9.51;100.00;101039.97;4938922;28;20712;-72
2022/06/02 04:25:42;;;;;;;6.13;5.53;;;;;;;9.55;100.00;101039.91;4937558;29;20200;-72
2022/06/02 04:28:17;;;;;;;7.17;5.47;;;;;;;9.68;100.00;101045.78;4939226;28;20203;-72
2022/06/02 04:30:55;;;;;;;6.50;5.50;;;;;;;9.79;100.00;101046.47;4937785;28;20220;-72
2022/06/02 04:33:30;;;;;;;5.83;4.90;;;;;;;9.97;100.00;101042.72;4942683;28;20211;-72
2022/06/02 04:36:06;;;;;;;5.63;5.07;;;;;;;10.08;100.00;101052.06;4933607;28;20302;-72
2022/06/02 04:38:43;;;;;;;5.93;4.93;;;;;;;10.16;100.00;101058.00;4943868;28;20228;-71
2022/06/02 04:41:18;;;;;;;5.53;4.70;;;;;;;10.21;100.00;101054.44;4939696;28;20687;-72
2022/06/02 04:43:53;;;;;;;5.53;4.97;;;;;;;10.28;100.00;101057.78;4940986;28;20206;-72
2022/06/02 04:46:47;;;;;;;5.67;5.07;;;;;;;10.41;100.00;101056.72;4934631;28;20210;-72
2022/06/02 04:49:22;;;;;;;6.43;5.00;;;;;;;10.52;100.00;101060.88;4935958;28;20575;-72
2022/06/02 04:51:56;;;;;;;5.70;4.90;;;;;;;10.63;100.00;101064.13;4926139;28;20824;-72
2022/06/02 04:54:33;;;;;;;5.47;4.87;;;;;;;10.64;100.00;101070.19;4941791;28;20202;-72
2022/06/02 04:57:10;;;;;;;6.50;5.33;;;;;;;10.76;100.00;101070.84;4940108;28;20208;-72
2022/06/02 04:59:47;;;;;;;5.23;4.63;;;;;;;10.83;100.00;101078.53;4942799;29;20223;-72
2022/06/02 05:02:22;;;;;;;5.67;5.07;;;;;;;10.90;100.00;101080.13;4965128;23;20268;-74
2022/06/02 05:04:54;;;;;;;6.43;5.47;;;;;;;10.89;100.00;101081.03;4956453;28;20574;-73
2022/06/02 05:07:32;;;;;;;7.30;4.47;;;;;;;10.93;100.00;101093.13;4953694;28;20210;-74
2022/06/02 05:10:11;;;;;;;5.17;4.67;;;;;;;11.05;100.00;101092.88;4957580;28;20330;-74
2022/06/02 05:12:50;;;;;;;5.93;4.57;;;;;;;11.05;100.00;101098.09;4947991;28;20589;-73
2022/06/02 05:15:28;;;;;;;5.20;4.67;;;;;;;11.14;100.00;101091.81;4951708;28;20739;-74
2022/06/02 05:18:23;;;;;;;5.60;4.80;;;;;;;11.18;100.00;101101.28;4953396;28;20195;-74
2022/06/02 05:21:11;;;;;;;5.57;4.63;;;;;;;11.25;100.00;101102.03;4955253;28;20704;-74
2022/06/02 05:24:03;;;;;;;5.97;4.70;;;;;;;11.30;100.00;101100.19;4953707;28;20222;-73
2022/06/02 05:26:59;;;;;;;6.00;5.17;;;;;;;11.43;100.00;101111.19;4949903;28;20251;-73
2022/06/02 05:29:39;;;;;;;5.90;5.00;;;;;;;11.55;100.00;101116.16;4945865;28;20810;-74
2022/06/02 05:32:34;;;;;;;6.00;5.40;;;;;;;11.68;100.00;101114.13;4953353;28;20245;-74
2022/06/02 05:35:35;;;;;;;6.10;5.27;;;;;;;11.79;100.00;101122.59;4956974;28;20297;-74
2022/06/02 05:38:33;;;;;;;5.37;4.33;;;;;;;11.89;100.00;101126.69;4956447;28;20216;-74
2022/06/02 05:41:13;;;;;;;7.00;5.20;;;;;;;11.91;100.00;101130.16;4944573;28;20225;-74
2022/06/02 05:43:47;;;;;;;6.43;5.20;;;;;;;11.99;100.00;101136.97;4957651;28;20207;-73
2022/06/02 05:46:32;;;;;;;7.30;5.80;;;;;;;12.12;100.00;101133.16;4943053;28;20206;-73
2022/06/02 05:49:13;;;;;;;6.70;4.73;;;;;;;12.25;100.00;101133.72;4960167;28;20675;-74
2022/06/02 05:51:53;;;;;;;6.87;5.33;;;;;;;12.30;100.00;101131.84;4964882;28;20233;-73
2022/06/02 05:54:36;;;;;;;5.17;4.67;;;;;;;12.39;100.00;101135.97;4942138;28;20203;-73
2022/06/02 05:57:17;;;;;;;4.93;4.40;;;;;;;12.37;100.00;101137.78;4958637;28;20201;-74
2022/06/02 06:00:00;;;;;;;5.70;4.70;;;;;;;12.38;99.42;101142.94;4961897;28;20204;-73
2022/06/02 06:03:04;;;;;;;5.30;4.47;;;;;;;12.44;99.19;101142.81;4958895;28;20235;-74
2022/06/02 06:05:37;;;;;;;5.30;4.30;;;;;;;12.54;100.00;101151.28;4957159;28;20203;-74
2022/06/02 06:08:18;;;;;;;7.53;4.30;;;;;;;12.64;100.00;101144.03;4963815;28;20571;-74
2022/06/02 06:11:02;;;;;;;5.57;4.23;;;;;;;12.67;99.93;101147.44;4967341;28;20237;-74
2022/06/02 06:13:48;;;;;;;5.10;4.10;;;;;;;12.75;100.00;101154.22;4961100;28;20211;-74
2022/06/02 06:16:22;;;;;;;4.87;4.07;;;;;;;12.78;97.28;101147.13;4966645;28;20224;-74
2022/06/02 06:19:05;;;;;;;4.27;3.87;;;;;;;12.78;96.61;101144.53;4964027;28;20565;-74
2022/06/02 06:21:49;;;;;;;4.93;4.43;;;;;;;12.92;97.56;101151.16;4966541;28;20230;-74
2022/06/02 06:24:27;;;;;;;4.90;3.73;;;;;;;12.98;97.38;101150.97;4965843;28;20592;-74
2022/06/02 06:27:04;;;;;;;5.83;4.33;;;;;;;13.01;95.01;101154.34;4946507;28;20567;-74
2022/06/02 06:29:45;;;;;;;4.27;3.70;;;;;;;13.09;93.98;101162.00;4964950;28;20208;-74
2022/06/02 06:32:22;;;;;;;4.27;3.73;;;;;;;13.11;93.35;101168.06;4956499;28;20246;-74
2022/06/02 06:34:56;;;;;;;4.17;3.60;;;;;;;13.25;96.06;101165.06;4965371;28;20212;-74
2022/06/02 06:37:52;;;;;;;4.30;3.37;;;;;;;13.44;91.03;101168.03;4960389;28;20208;-74
2022/06/02 06:40:34;;;;;;;5.00;3.67;;;;;;;13.53;91.93;101169.53;4962691;28;20209;-74
2022/06/02 06:43:11;;;;;;;4.73;3.50;;;;;;;13.64;91.54;101180.53;4960731;28;20205;-74
2022/06/02 06:49:45;;;;;;;3.33;3.03;;;;;;;13.57;88.73;101185.09;4919514;29;20262;-74
2022/06/02 06:56:06;;;;;;;4.10;3.20;;;;;;;13.90;84.85;101197.25;4926031;28;20660;-74
2022/06/02 06:58:49;;;;;;;5.27;3.47;;;;;;;14.01;86.05;101192.50;4948341;28;20201;-74
2022/06/02 07:01:24;;;;;;;4.37;3.43;;;;;;;14.01;86.42;101198.59;4965073;28;20644;-74
2022/06/02 07:03:58;;;;;;;6.73;3.03;;;;;;;14.15;85.81;101192.06;4962749;28;20201;-74
2022/06/02 07:06:39;;;;;;;3.23;2.83;;;;;;;14.25;84.20;101192.63;4962278;28;20742;-74
2022/06/02 07:09:15;;;;;;;4.10;2.90;;;;;;;14.30;86.39;101194.22;4962941;28;20856;-74
2022/06/02 07:14:41;;;;;;;3.10;2.80;;;;;;;14.05;86.08;101201.97;4953664;28;20206;-74
2022/06/02 07:17:18;;;;;;;3.13;2.73;;;;;;;14.26;83.29;101203.06;4961322;28;20225;-74
2022/06/02 07:19:52;;;;;;;2.87;2.53;;;;;;;14.50;80.61;101206.66;4960199;28;20578;-74
2022/06/02 07:22:26;;;;;;;3.00;2.70;;;;;;;14.32;79.18;101212.53;4956743;28;20325;-74
2022/06/02 07:25:00;;;;;;;3.03;2.57;;;;;;;14.42;82.61;101211.28;4965768;28;20210;-74
2022/06/02 07:27:35;;;;;;;2.97;2.67;;;;;;;14.60;82.35;101209.00;4965232;28;20213;-74
2022/06/02 07:30:36;;;;;;;3.57;2.70;;;;;;;14.73;81.24;101211.16;4960834;28;20198;-74
2022/06/02 07:33:27;;;;;;;5.07;3.27;;;;;;;14.50;80.71;101213.69;4951380;28;20222;-74
2022/06/02 07:36:08;;;;;;;2.87;2.60;;;;;;;14.63;81.11;101212.38;4959294;28;20596;-74
2022/06/02 07:38:55;;;;;;;3.07;2.70;;;;;;;15.04;77.58;101220.59;4966977;28;20199;-74
2022/06/02 07:41:43;;;;;;;2.50;2.30;;;;;;;15.19;78.69;101228.84;4960579;28;20634;-74
2022/06/02 07:44:28;;;;;;;3.03;2.73;;;;;;;15.39;76.60;101225.50;4957304;28;20210;-74
2022/06/02 07:47:16;;;;;;;2.27;2.07;;;;;;;15.52;76.42;101234.66;4961990;28;20204;-74
2022/06/02 07:49:55;;;;;;;1.90;1.67;;;;;;;15.69;74.36;101234.03;4962177;28;20204;-74
2022/06/02 07:52:30;;;;;;;4.40;1.50;;;;;;;15.76;68.00;101250.44;4964425;28;20600;-74
2022/06/02 07:55:04;;;;;;;1.83;1.73;;;;;;;15.82;70.15;101243.19;4963922;28;20223;-74
2022/06/02 07:57:41;;;;;;;1.90;1.53;;;;;;;16.02;71.94;101239.78;4947851;28;20884;-74
2022/06/02 08:00:16;;;;;;;2.57;2.37;;;;;;;16.05;68.45;101247.53;4958671;28;20212;-74
2022/06/02 08:03:05;;;;;;;1.70;1.60;;;;;;;16.08;68.07;101244.81;4962666;28;20260;-74
2022/06/02 08:05:40;;;;;;;2.10;1.90;;;;;;;16.01;69.74;101240.69;4965832;28;20211;-74
2022/06/02 08:08:16;;;;;;;1.90;1.73;;;;;;;16.09;66.72;101259.69;4961727;28;20667;-74
2022/06/02 08:11:04;;;;;;;2.07;1.50;;;;;;;16.46;69.60;101246.81;4965276;28;20228;-74
2022/06/02 08:13:39;;;;;;;1.93;1.60;;;;;;;16.71;65.97;101258.94;4960116;28;20210;-74
2022/06/02 08:16:13;;;;;;;3.13;1.50;;;;;;;16.59;65.57;101261.19;4959408;28;20582;-74
2022/06/02 08:18:56;;;;;;;2.33;1.30;;;;;;;16.71;65.33;101273.00;4961201;28;20551;-74
2022/06/02 08:21:29;;;;;;;1.67;1.50;;;;;;;16.49;65.38;101259.84;4960152;28;20221;-74
2022/06/02 08:24:10;;;;;;;1.67;1.40;;;;;;;16.51;66.59;101255.38;4968906;28;20190;-74
2022/06/02 08:26:45;;;;;;;1.40;1.30;;;;;;;16.60;66.17;101256.78;4965303;28;20202;-74
2022/06/02 08:29:23;;;;;;;1.40;1.30;;;;;;;16.74;63.74;101264.09;4957202;28;20205;-74
2022/06/02 08:32:11;;;;;;;1.70;1.60;;;;;;;16.91;64.73;101264.28;4963229;28;20233;-74
2022/06/02 08:34:49;;;;;;;1.33;1.23;;;;;;;17.15;64.67;101261.50;4962222;28;20202;-74
2022/06/02 08:37:23;;;;;;;1.30;1.20;;;;;;;17.20;64.15;101265.66;4960324;28;20404;-74
2022/06/02 08:39:59;;;;;;;1.40;1.00;;;;;;;16.90;62.11;101272.25;4961645;28;20209;-74
2022/06/02 08:42:46;;;;;;;1.37;1.27;;;;;;;16.53;63.50;101273.72;4958014;28;20602;-74
2022/06/02 08:45:41;;;;;;;1.33;1.23;;;;;;;16.56;66.87;101271.84;4961317;28;20204;-74
2022/06/02 08:48:42;;;;;;;1.33;1.23;;;;;;;16.88;64.12;101271.47;4962800;28;20205;-74
2022/06/02 08:51:35;;;;;;;1.73;1.50;;;;;;;17.12;61.13;101275.66;4955543;28;20222;-74
2022/06/02 08:54:48;;;;;;;1.60;1.50;;;;;;;17.19;59.48;101274.47;4961985;28;20419;-74
2022/06/02 08:57:33;;;;;;;1.43;1.33;;;;;;;17.01;61.32;101278.78;4924393;28;20257;-74
2022/06/02 09:00:26;;;;;;;1.40;1.10;;;;;;;16.70;62.32;101275.69;4963641;28;20217;-74
2022/06/02 09:03:29;;;;;;;1.67;1.00;;;;;;;16.59;63.35;101289.28;4960220;28;20401;-74
2022/06/02 09:06:29;;;;;;;1.30;1.20;;;;;;;16.64;62.38;101288.19;4957067;28;20201;-74
2022/06/02 09:09:25;;;;;;;2.00;1.30;;;;;;;16.92;59.75;101288.81;4955754;28;20741;-74
2022/06/02 09:12:15;;;;;;;1.57;1.47;;;;;;;17.28;60.41;101285.56;4957069;28;20234;-74
2022/06/02 09:15:18;;;;;;;1.30;1.20;;;;;;;17.74;65.71;101265.03;4957922;28;20665;-74
2022/06/02 09:17:47;;;;;;;1.23;1.17;;;;;;;17.35;57.59;101289.63;4959536;28;20221;-74
2022/06/02 09:20:29;;;;;;;1.53;1.20;;;;;;;17.27;58.53;101286.47;4961356;28;20198;-74
2022/06/02 09:23:28;;;;;;;1.20;1.10;;;;;;;17.34;60.21;101282.63;4958756;28;20529;-74
2022/06/02 09:26:11;;;;;;;2.00;0.90;;;;;;;17.70;58.93;101284.56;4956826;28;20202;-74
2022/06/02 09:29:03;;;;;;;1.03;1.03;;;;;;;17.73;57.68;101292.31;4961041;28;20206;-74
2022/06/02 09:31:56;;;;;;;0.80;0.80;;;;;;;17.59;58.02;101296.44;4955421;28;20240;-74
2022/06/02 09:34:42;;;;;;;1.00;0.90;;;;;;;17.25;57.20;101302.34;4953727;28;20726;-74
2022/06/02 09:37:30;;;;;;;0.80;0.80;;;;;;;17.21;58.26;101303.41;4951913;28;20272;-74
2022/06/02 09:40:37;;;;;;;0.90;0.90;;;;;;;17.13;58.63;101310.78;4961570;28;20212;-74
2022/06/02 09:43:24;;;;;;;0.87;0.87;;;;;;;17.14;58.96;101312.50;4882273;29;20212;-74
2022/06/02 09:46:07;;;;;;;1.10;1.00;;;;;;;17.23;56.94;101312.09;4960904;28;20668;-74
2022/06/02 09:48:51;;;;;;;0.80;0.80;;;;;;;17.52;56.18;101307.31;4959267;28;20563;-74
2022/06/02 09:51:42;;;;;;;0.80;0.80;;;;;;;17.51;56.10;101313.53;4962112;28;20225;-74
2022/06/02 09:54:34;;;;;;;1.30;0.90;;;;;;;17.32;56.23;101316.97;4948512;28;20420;-74
2022/06/02 10:00:19;;;;;;;0.83;0.83;;;;;;;17.41;55.24;101320.97;4958028;28;20217;-74
2022/06/02 10:03:02;;;;;;;1.00;0.90;;;;;;;17.30;55.95;101313.53;4959530;28;20216;-74
2022/06/02 10:05:50;;;;;;;0.97;0.80;;;;;;;17.54;59.40;101310.78;4962572;28;20842;-74
2022/06/02 10:08:27;;;;;;;0.87;0.87;;;;;;;17.35;57.11;101313.34;4958195;28;20217;-74
2022/06/02 10:11:07;;;;;;;0.93;0.80;;;;;;;17.60;58.96;101311.31;4959380;28;20595;-74
2022/06/02 10:14:04;;;;;;;1.40;1.00;;;;;;;17.93;58.04;101309.91;4958334;28;20202;-74
2022/06/02 10:16:53;;;;;;;1.27;1.17;;;;;;;18.21;59.21;101306.84;4962188;28;20472;-74
2022/06/02 10:19:49;;;;;;;0.90;0.90;;;;;;;18.54;56.61;101308.81;4954839;28;21336;-74
2022/06/02 10:22:21;;;;;;;0.80;0.80;;;;;;;18.86;57.92;101301.09;4956565;28;20221;-74
2022/06/02 10:25:05;;;;;;;0.90;0.90;;;;;;;19.16;55.96;101308.41;4958414;28;20220;-74
2022/06/02 10:28:27;;;;;;;1.97;0.90;;;;;;;19.08;51.49;101304.38;4960020;28;20237;-74
2022/06/02 10:31:32;;;;;;;0.80;0.80;;;;;;;18.58;50.98;101320.91;4917607;29;20656;-74
2022/06/02 10:34:29;;;;;;;2.40;1.10;;;;;;;17.92;52.16;101316.97;4901082;29;20215;-74
2022/06/02 10:37:08;;;;;;;1.00;0.90;;;;;;;17.70;54.26;101317.06;4962058;28;20222;-74
2022/06/02 10:39:54;;;;;;;0.80;0.80;;;;;;;17.59;57.36;101314.91;4964335;28;20205;-74
2022/06/02 10:42:40;;;;;;;1.47;1.10;;;;;;;17.97;52.89;101320.25;4960479;28;20238;-74
2022/06/02 10:45:20;;;;;;;0.80;0.80;;;;;;;18.21;57.75;101316.56;4968350;28;20965;-74
2022/06/02 10:48:25;;;;;;;1.13;1.00;;;;;;;18.34;51.17;101323.78;4963008;28;20206;-74
2022/06/02 10:51:16;;;;;;;1.33;1.10;;;;;;;18.44;51.08;101318.94;4936580;28;20221;-74
2022/06/02 10:54:11;;;;;;;1.20;1.10;;;;;;;18.61;50.79;101315.50;4962154;28;20206;-74
2022/06/02 10:57:01;;;;;;;1.10;1.00;;;;;;;18.69;50.66;101323.03;4954762;28;20245;-73
2022/06/02 11:00:07;;;;;;;0.87;0.87;;;;;;;18.81;52.89;101313.66;4961473;28;20210;-74
2022/06/02 11:03:28;;;;;;;0.90;0.90;;;;;;;19.08;51.95;101312.31;4954542;28;20233;-72
2022/06/02 11:06:23;;;;;;;1.30;1.20;;;;;;;19.13;49.76;101309.41;4960664;28;20542;-72
2022/06/02 11:09:31;;;;;;;1.17;1.07;;;;;;;19.39;49.13;101309.84;4959703;28;20225;-73
2022/06/02 11:12:22;;;;;;;1.77;1.10;;;;;;;19.15;49.36;101309.31;4964125;28;20610;-73
2022/06/02 11:15:42;;;;;;;1.67;1.10;;;;;;;18.87;50.21;101318.66;4944384;28;20233;-73
2022/06/02 11:18:47;;;;;;;1.00;0.90;;;;;;;18.94;50.89;101311.28;4957873;28;20215;-72
2022/06/02 11:21:44;;;;;;;0.90;0.90;;;;;;;19.36;50.58;101304.72;4916321;28;20787;-73
2022/06/02 11:24:46;;;;;;;1.20;1.10;;;;;;;19.28;48.68;101311.25;4961072;28;20206;-73
2022/06/02 11:27:55;;;;;;;0.80;0.80;;;;;;;18.81;48.88;101318.94;4958260;28;20216;-73
2022/06/02 11:30:31;;;;;;;0.97;0.83;;;;;;;18.57;48.46;101319.19;4957966;28;20670;-73
2022/06/02 11:33:43;;;;;;;0.80;0.80;;;;;;;19.04;47.92;101318.66;4958121;28;20202;-73
2022/06/02 11:36:33;;;;;;;1.10;1.00;;;;;;;19.22;47.59;101326.56;4938624;28;20293;-72
2022/06/02 11:39:38;;;;;;;0.90;0.90;;;;;;;19.28;44.65;101315.72;4960612;28;20685;-73
2022/06/02 11:42:22;;;;;;;1.70;1.00;;;;;;;19.46;48.19;101309.44;4960766;28;20222;-73
2022/06/02 11:45:00;;;;;;;1.10;1.00;;;;;;;19.74;49.97;101308.00;4960659;28;20203;-72
2022/06/02 11:47:46;;;;;;;0.93;0.93;;;;;;;20.03;46.87;101310.84;4960354;28;20333;-73
2022/06/02 11:50:39;;;;;;;1.00;1.00;;;;;;;20.19;48.02;101313.50;4960760;28;20226;-73
2022/06/02 11:53:52;;;;;;;0.93;0.87;;;;;;;20.22;46.26;101319.47;4959740;28;20205;-73
2022/06/02 11:56:35;;;;;;;0.70;0.70;;;;;;;19.81;45.23;101306.75;4877957;29;20209;-73
2022/06/02 11:59:35;;;;;;;0.80;0.80;;;;;;;20.10;44.65;101316.66;4948743;28;20209;-72
2022/06/02 12:02:27;;;;;;;0.70;0.70;;;;;;;20.17;45.50;101318.03;4956390;28;20233;-73
2022/06/02 12:05:18;;;;;;;1.40;1.07;;;;;;;20.30;42.72;101318.19;4962898;28;20611;-73
2022/06/02 12:08:25;;;;;;;0.80;0.80;;;;;;;20.26;44.13;101317.50;4958915;28;20221;-73
2022/06/02 12:11:20;;;;;;;0.97;0.97;;;;;;;20.29;45.85;101322.66;4960446;28;20725;-72
2022/06/02 12:14:13;;;;;;;2.10;0.90;;;;;;;20.21;42.97;101325.72;4953757;28;20205;-73
2022/06/02 12:17:13;;;;;;;0.97;0.87;;;;;;;20.19;45.68;101316.16;4948002;28;20230;-73
2022/06/02 12:20:19;;;;;;;0.93;0.87;;;;;;;19.84;44.24;101326.88;4947504;28;20213;-73
2022/06/02 12:23:08;;;;;;;1.33;0.67;;;;;;;19.30;47.15;101325.25;4886306;28;20213;-73
2022/06/02 12:25:49;;;;;;;0.67;0.67;;;;;;;19.60;42.25;101329.03;4957167;28;20678;-73
2022/06/02 12:28:45;;;;;;;0.70;0.70;;;;;;;19.78;40.54;101332.50;4961187;28;20515;-72
2022/06/02 12:31:46;;;;;;;1.13;0.80;;;;;;;20.12;42.81;101320.97;4956701;28;20222;-73
2022/06/02 12:34:40;;;;;;;0.80;0.80;;;;;;;20.29;41.43;101335.03;4958158;28;20211;-73
2022/06/02 12:37:29;;;;;;;0.80;0.80;;;;;;;20.31;41.64;101322.56;4956821;28;20220;-73
2022/06/02 12:40:16;;;;;;;0.70;0.70;;;;;;;20.10;42.97;101332.56;4960355;28;20202;-72
2022/06/02 12:43:02;;;;;;;1.13;0.93;;;;;;;19.67;44.16;101328.59;4959297;28;20202;-73
2022/06/02 12:45:48;;;;;;;1.00;0.90;;;;;;;19.62;42.63;101324.50;4958283;28;21780;-73
2022/06/02 12:48:43;;;;;;;0.93;0.70;;;;;;;19.87;43.31;101321.41;4955730;28;20751;-73
2022/06/02 12:51:29;;;;;;;0.70;0.70;;;;;;;19.75;43.65;101319.44;4954339;28;20226;-73
2022/06/02 12:54:26;;;;;;;0.90;0.90;;;;;;;19.96;44.21;101317.41;4959713;28;20659;-73
2022/06/02 12:57:12;;;;;;;1.03;0.97;;;;;;;20.01;43.69;101321.53;4959421;28;20225;-72
2022/06/02 13:00:02;;;;;;;1.07;0.80;;;;;;;19.55;44.01;101320.47;4959037;28;20559;-73
2022/06/02 13:02:52;;;;;;;1.03;0.93;;;;;;;19.21;45.92;101332.81;4960697;28;20257;-73
2022/06/02 13:05:56;;;;;;;0.93;0.90;;;;;;;18.94;46.73;101324.47;4944778;28;20206;-73
2022/06/02 13:09:21;;;;;;;0.80;0.80;;;;;;;19.31;46.00;101323.44;4953813;28;20201;-73